Portada
METAR-TAF:

METAR-TAF

Aeroports :

Yanbu, Aràbia Saudita

latitud: 24-09N, longitud: 038-04E, altitud: 8 m

Observació

L'informe es va fer fa 37 minuts, a les 08:00 UTC
Vent 6 kt del Sud
Temperatura 35°C
Humitat 56%
Pressió 1007 hPa
Visibilitat 10 km o més
sense núvols per sota de 1500 mi sense presència de cumulonimbus.

METAR: OEYN 080800Z 18006KT CAVOK 35/25 Q1007 NOSIG

Hora: 11:37 (08:37 UTC)

Pronòstic

L'informe es va fer fa 3 hores i 37 minuts, a les 05:00 UTC
Pronòstic vàlid del 08 a les 06 UTC al 08 a les 15 UTC
Vent 14 kt del Oest
Visibilitat 10 km o més
sense núvols per sota de 1500 mi sense presència de cumulonimbus.

TAF: OEYN 080500Z 0806/0815 27014KT CAVOK

Observacions i pronòstics meteorològics de més de 4000 aeroports (METAR i TAF).

Les estacions disponibles són els punts grocs i vermells al mapa.

Posi el ratolí al punt desitjat per veure el nom de l'estació.

Feu clic per veure les observacions i els pronòstics meteorològics.

Per canviar el mapa: feu clic els botons verds amb una creu de color negre per apropar; al botó verd amb un guió per allunyar la imatge; o en les fletxes verdes per a mapes adjacents.


METAR-TAF: